sensor_id;sensor_type;location;lat;lon;timestamp;P1;durP1;ratioP1;P2;durP2;ratioP2
315;SDS011;14128;48.686;9.738;2022-10-16T00:02:20;2.00;;;1.83;;
315;SDS011;14128;48.686;9.738;2022-10-16T00:04:47;1.67;;;1.50;;
315;SDS011;14128;48.686;9.738;2022-10-16T00:07:14;3.57;;;3.00;;
315;SDS011;14128;48.686;9.738;2022-10-16T00:09:41;4.07;;;2.77;;
315;SDS011;14128;48.686;9.738;2022-10-16T00:12:08;2.77;;;2.47;;
315;SDS011;14128;48.686;9.738;2022-10-16T00:14:36;4.00;;;2.43;;
315;SDS011;14128;48.686;9.738;2022-10-16T00:17:05;5.83;;;3.57;;
315;SDS011;14128;48.686;9.738;2022-10-16T00:19:32;3.27;;;2.67;;
315;SDS011;14128;48.686;9.738;2022-10-16T00:21:59;7.97;;;2.13;;
315;SDS011;14128;48.686;9.738;2022-10-16T00:24:26;1.83;;;1.50;;
315;SDS011;14128;48.686;9.738;2022-10-16T00:26:54;2.97;;;2.00;;
315;SDS011;14128;48.686;9.738;2022-10-16T00:29:21;4.17;;;2.50;;
315;SDS011;14128;48.686;9.738;2022-10-16T00:31:49;2.60;;;2.07;;
315;SDS011;14128;48.686;9.738;2022-10-16T00:34:16;2.07;;;1.93;;
315;SDS011;14128;48.686;9.738;2022-10-16T00:36:43;2.67;;;2.50;;
315;SDS011;14128;48.686;9.738;2022-10-16T00:39:09;2.57;;;2.00;;
315;SDS011;14128;48.686;9.738;2022-10-16T00:41:37;2.20;;;1.80;;
315;SDS011;14128;48.686;9.738;2022-10-16T00:44:40;1.53;;;1.43;;
315;SDS011;14128;48.686;9.738;2022-10-16T00:47:13;2.57;;;2.37;;
315;SDS011;14128;48.686;9.738;2022-10-16T00:49:44;3.30;;;1.80;;
315;SDS011;14128;48.686;9.738;2022-10-16T00:52:13;2.23;;;2.07;;
315;SDS011;14128;48.686;9.738;2022-10-16T00:54:41;3.47;;;1.90;;
315;SDS011;14128;48.686;9.738;2022-10-16T00:57:08;5.40;;;2.10;;
315;SDS011;14128;48.686;9.738;2022-10-16T00:59:36;4.33;;;1.90;;
315;SDS011;14128;48.686;9.738;2022-10-16T01:02:07;5.03;;;2.63;;
315;SDS011;14128;48.686;9.738;2022-10-16T01:04:36;3.27;;;1.90;;
315;SDS011;14128;48.686;9.738;2022-10-16T01:07:06;4.60;;;1.87;;
315;SDS011;14128;48.686;9.738;2022-10-16T01:09:40;3.67;;;1.83;;
315;SDS011;14128;48.686;9.738;2022-10-16T01:12:15;5.83;;;2.67;;
315;SDS011;14128;48.686;9.738;2022-10-16T01:14:47;3.67;;;1.83;;
315;SDS011;14128;48.686;9.738;2022-10-16T01:17:22;4.67;;;2.50;;
315;SDS011;14128;48.686;9.738;2022-10-16T01:20:00;3.00;;;2.80;;
315;SDS011;14128;48.686;9.738;2022-10-16T01:22:38;5.27;;;4.97;;
315;SDS011;14128;48.686;9.738;2022-10-16T01:25:17;6.10;;;5.23;;
315;SDS011;14128;48.686;9.738;2022-10-16T01:27:52;4.57;;;4.20;;
315;SDS011;14128;48.686;9.738;2022-10-16T01:30:21;4.40;;;3.60;;
315;SDS011;14128;48.686;9.738;2022-10-16T01:32:53;5.30;;;4.10;;
315;SDS011;14128;48.686;9.738;2022-10-16T01:35:24;4.53;;;3.13;;
315;SDS011;14128;48.686;9.738;2022-10-16T01:37:54;3.83;;;1.83;;
315;SDS011;14128;48.686;9.738;2022-10-16T01:40:26;2.50;;;2.03;;
315;SDS011;14128;48.686;9.738;2022-10-16T01:42:57;3.00;;;1.47;;
315;SDS011;14128;48.686;9.738;2022-10-16T01:45:27;1.97;;;1.87;;
315;SDS011;14128;48.686;9.738;2022-10-16T01:47:56;3.20;;;2.13;;
315;SDS011;14128;48.686;9.738;2022-10-16T01:50:29;2.97;;;2.20;;
315;SDS011;14128;48.686;9.738;2022-10-16T01:52:59;2.30;;;2.10;;
315;SDS011;14128;48.686;9.738;2022-10-16T01:55:28;2.53;;;2.17;;
315;SDS011;14128;48.686;9.738;2022-10-16T01:57:59;2.73;;;2.60;;
315;SDS011;14128;48.686;9.738;2022-10-16T02:00:28;3.37;;;3.17;;
315;SDS011;14128;48.686;9.738;2022-10-16T02:02:56;5.30;;;3.90;;
315;SDS011;14128;48.686;9.738;2022-10-16T02:05:27;3.53;;;3.40;;
315;SDS011;14128;48.686;9.738;2022-10-16T02:07:57;3.13;;;2.87;;
315;SDS011;14128;48.686;9.738;2022-10-16T02:10:24;3.63;;;3.07;;
315;SDS011;14128;48.686;9.738;2022-10-16T02:12:53;2.20;;;2.00;;
315;SDS011;14128;48.686;9.738;2022-10-16T02:15:25;1.77;;;1.70;;
315;SDS011;14128;48.686;9.738;2022-10-16T02:17:51;4.90;;;1.73;;
315;SDS011;14128;48.686;9.738;2022-10-16T02:20:19;2.47;;;1.67;;
315;SDS011;14128;48.686;9.738;2022-10-16T02:22:52;2.23;;;1.37;;
315;SDS011;14128;48.686;9.738;2022-10-16T02:25:22;1.97;;;1.50;;
315;SDS011;14128;48.686;9.738;2022-10-16T02:27:53;2.93;;;1.90;;
315;SDS011;14128;48.686;9.738;2022-10-16T02:30:25;5.10;;;1.90;;
315;SDS011;14128;48.686;9.738;2022-10-16T02:32:56;2.30;;;1.83;;
315;SDS011;14128;48.686;9.738;2022-10-16T02:35:26;3.10;;;1.40;;
315;SDS011;14128;48.686;9.738;2022-10-16T02:37:54;4.40;;;1.50;;
315;SDS011;14128;48.686;9.738;2022-10-16T02:40:22;5.60;;;1.63;;
315;SDS011;14128;48.686;9.738;2022-10-16T02:42:51;3.73;;;1.60;;
315;SDS011;14128;48.686;9.738;2022-10-16T02:45:18;2.33;;;1.93;;
315;SDS011;14128;48.686;9.738;2022-10-16T02:47:47;3.13;;;1.50;;
315;SDS011;14128;48.686;9.738;2022-10-16T02:50:14;3.30;;;1.87;;
315;SDS011;14128;48.686;9.738;2022-10-16T02:52:40;2.63;;;1.47;;
315;SDS011;14128;48.686;9.738;2022-10-16T02:55:07;4.73;;;2.10;;
315;SDS011;14128;48.686;9.738;2022-10-16T02:57:34;2.43;;;1.50;;
315;SDS011;14128;48.686;9.738;2022-10-16T03:00:02;2.00;;;1.87;;
315;SDS011;14128;48.686;9.738;2022-10-16T03:02:29;1.73;;;1.57;;
315;SDS011;14128;48.686;9.738;2022-10-16T03:04:58;1.50;;;1.37;;
315;SDS011;14128;48.686;9.738;2022-10-16T03:07:24;1.20;;;1.00;;
315;SDS011;14128;48.686;9.738;2022-10-16T03:09:51;5.77;;;1.30;;
315;SDS011;14128;48.686;9.738;2022-10-16T03:12:19;4.90;;;1.20;;
315;SDS011;14128;48.686;9.738;2022-10-16T03:14:46;1.13;;;1.00;;
315;SDS011;14128;48.686;9.738;2022-10-16T03:17:13;1.80;;;1.30;;
315;SDS011;14128;48.686;9.738;2022-10-16T03:19:41;2.53;;;1.47;;
315;SDS011;14128;48.686;9.738;2022-10-16T03:22:09;2.83;;;1.43;;
315;SDS011;14128;48.686;9.738;2022-10-16T03:24:36;2.10;;;1.40;;
315;SDS011;14128;48.686;9.738;2022-10-16T03:27:03;0.90;;;0.77;;
315;SDS011;14128;48.686;9.738;2022-10-16T03:29:30;7.60;;;1.47;;
315;SDS011;14128;48.686;9.738;2022-10-16T03:31:57;3.43;;;1.23;;
315;SDS011;14128;48.686;9.738;2022-10-16T03:34:24;3.17;;;1.27;;
315;SDS011;14128;48.686;9.738;2022-10-16T03:36:51;1.80;;;1.20;;
315;SDS011;14128;48.686;9.738;2022-10-16T03:39:20;2.90;;;1.10;;
315;SDS011;14128;48.686;9.738;2022-10-16T03:41:46;1.60;;;0.97;;
315;SDS011;14128;48.686;9.738;2022-10-16T03:44:13;1.50;;;1.30;;
315;SDS011;14128;48.686;9.738;2022-10-16T03:46:40;1.93;;;1.50;;
315;SDS011;14128;48.686;9.738;2022-10-16T03:49:07;1.50;;;1.40;;
315;SDS011;14128;48.686;9.738;2022-10-16T03:51:34;2.17;;;1.30;;
315;SDS011;14128;48.686;9.738;2022-10-16T03:54:00;2.70;;;1.00;;
315;SDS011;14128;48.686;9.738;2022-10-16T03:56:28;1.83;;;1.00;;
315;SDS011;14128;48.686;9.738;2022-10-16T03:58:55;3.70;;;1.73;;
315;SDS011;14128;48.686;9.738;2022-10-16T04:01:22;4.87;;;1.30;;
315;SDS011;14128;48.686;9.738;2022-10-16T04:03:49;3.20;;;1.57;;
315;SDS011;14128;48.686;9.738;2022-10-16T04:06:16;1.40;;;1.17;;
315;SDS011;14128;48.686;9.738;2022-10-16T04:08:43;4.83;;;1.70;;
315;SDS011;14128;48.686;9.738;2022-10-16T04:11:10;1.33;;;1.00;;
315;SDS011;14128;48.686;9.738;2022-10-16T04:13:38;2.03;;;1.70;;
315;SDS011;14128;48.686;9.738;2022-10-16T04:16:05;2.70;;;1.90;;
315;SDS011;14128;48.686;9.738;2022-10-16T04:18:32;2.00;;;1.60;;
315;SDS011;14128;48.686;9.738;2022-10-16T04:21:01;5.00;;;1.67;;
315;SDS011;14128;48.686;9.738;2022-10-16T04:23:29;1.30;;;1.20;;
315;SDS011;14128;48.686;9.738;2022-10-16T04:25:56;2.73;;;1.83;;
315;SDS011;14128;48.686;9.738;2022-10-16T04:28:23;2.60;;;1.40;;
315;SDS011;14128;48.686;9.738;2022-10-16T04:30:51;1.17;;;1.00;;
315;SDS011;14128;48.686;9.738;2022-10-16T04:33:18;2.43;;;1.40;;
315;SDS011;14128;48.686;9.738;2022-10-16T04:35:45;1.70;;;1.47;;
315;SDS011;14128;48.686;9.738;2022-10-16T04:38:12;1.50;;;1.00;;
315;SDS011;14128;48.686;9.738;2022-10-16T04:40:39;1.90;;;1.40;;
315;SDS011;14128;48.686;9.738;2022-10-16T04:43:08;6.73;;;2.10;;
315;SDS011;14128;48.686;9.738;2022-10-16T04:45:34;2.20;;;1.60;;
315;SDS011;14128;48.686;9.738;2022-10-16T04:48:02;2.30;;;1.10;;
315;SDS011;14128;48.686;9.738;2022-10-16T04:50:29;4.73;;;1.47;;
315;SDS011;14128;48.686;9.738;2022-10-16T04:52:56;2.03;;;1.53;;
315;SDS011;14128;48.686;9.738;2022-10-16T04:55:23;2.57;;;2.00;;
315;SDS011;14128;48.686;9.738;2022-10-16T04:57:50;5.10;;;1.87;;
315;SDS011;14128;48.686;9.738;2022-10-16T05:00:16;4.20;;;1.47;;
315;SDS011;14128;48.686;9.738;2022-10-16T05:02:43;5.87;;;1.37;;
315;SDS011;14128;48.686;9.738;2022-10-16T05:05:11;2.23;;;1.50;;
315;SDS011;14128;48.686;9.738;2022-10-16T05:07:39;4.90;;;2.20;;
315;SDS011;14128;48.686;9.738;2022-10-16T05:10:06;3.77;;;1.93;;
315;SDS011;14128;48.686;9.738;2022-10-16T05:12:33;1.90;;;1.80;;
315;SDS011;14128;48.686;9.738;2022-10-16T05:15:00;4.03;;;1.70;;
315;SDS011;14128;48.686;9.738;2022-10-16T05:17:26;2.07;;;1.03;;
315;SDS011;14128;48.686;9.738;2022-10-16T05:19:53;1.67;;;1.57;;
315;SDS011;14128;48.686;9.738;2022-10-16T05:22:21;2.33;;;1.40;;
315;SDS011;14128;48.686;9.738;2022-10-16T05:24:48;2.27;;;1.50;;
315;SDS011;14128;48.686;9.738;2022-10-16T05:27:15;2.63;;;2.00;;
315;SDS011;14128;48.686;9.738;2022-10-16T05:29:44;4.60;;;3.17;;
315;SDS011;14128;48.686;9.738;2022-10-16T05:32:12;3.20;;;2.03;;
315;SDS011;14128;48.686;9.738;2022-10-16T05:34:39;3.20;;;1.73;;
315;SDS011;14128;48.686;9.738;2022-10-16T05:37:05;8.40;;;1.43;;
315;SDS011;14128;48.686;9.738;2022-10-16T05:39:34;4.70;;;1.97;;
315;SDS011;14128;48.686;9.738;2022-10-16T05:42:01;3.83;;;1.87;;
315;SDS011;14128;48.686;9.738;2022-10-16T05:44:28;1.67;;;1.60;;
315;SDS011;14128;48.686;9.738;2022-10-16T05:46:55;1.47;;;1.47;;
315;SDS011;14128;48.686;9.738;2022-10-16T05:49:22;6.73;;;1.40;;
315;SDS011;14128;48.686;9.738;2022-10-16T05:51:49;2.80;;;1.10;;
315;SDS011;14128;48.686;9.738;2022-10-16T05:54:16;2.50;;;1.40;;
315;SDS011;14128;48.686;9.738;2022-10-16T05:56:44;1.60;;;1.60;;
315;SDS011;14128;48.686;9.738;2022-10-16T05:59:11;3.83;;;1.50;;
315;SDS011;14128;48.686;9.738;2022-10-16T06:01:38;1.67;;;1.50;;
315;SDS011;14128;48.686;9.738;2022-10-16T06:04:04;2.80;;;2.17;;
315;SDS011;14128;48.686;9.738;2022-10-16T06:06:31;4.20;;;1.43;;
315;SDS011;14128;48.686;9.738;2022-10-16T06:08:58;1.97;;;1.40;;
315;SDS011;14128;48.686;9.738;2022-10-16T06:11:25;2.30;;;1.80;;
315;SDS011;14128;48.686;9.738;2022-10-16T06:13:56;2.67;;;1.73;;
315;SDS011;14128;48.686;9.738;2022-10-16T06:16:26;2.57;;;2.00;;
315;SDS011;14128;48.686;9.738;2022-10-16T06:18:54;3.07;;;1.67;;
315;SDS011;14128;48.686;9.738;2022-10-16T06:21:22;2.63;;;1.77;;
315;SDS011;14128;48.686;9.738;2022-10-16T06:23:50;6.33;;;2.13;;
315;SDS011;14128;48.686;9.738;2022-10-16T06:26:20;2.50;;;1.20;;
315;SDS011;14128;48.686;9.738;2022-10-16T06:28:48;2.37;;;1.50;;
315;SDS011;14128;48.686;9.738;2022-10-16T06:31:17;2.47;;;1.97;;
315;SDS011;14128;48.686;9.738;2022-10-16T06:33:44;3.33;;;1.77;;
315;SDS011;14128;48.686;9.738;2022-10-16T06:36:12;1.90;;;1.47;;
315;SDS011;14128;48.686;9.738;2022-10-16T06:38:40;3.60;;;1.90;;
315;SDS011;14128;48.686;9.738;2022-10-16T06:41:07;6.83;;;1.97;;
315;SDS011;14128;48.686;9.738;2022-10-16T06:43:37;1.80;;;1.73;;
315;SDS011;14128;48.686;9.738;2022-10-16T06:46:04;2.57;;;1.73;;
315;SDS011;14128;48.686;9.738;2022-10-16T06:48:34;4.70;;;1.70;;
315;SDS011;14128;48.686;9.738;2022-10-16T06:51:02;4.90;;;1.97;;
315;SDS011;14128;48.686;9.738;2022-10-16T06:53:31;3.17;;;1.70;;
315;SDS011;14128;48.686;9.738;2022-10-16T06:56:05;2.43;;;1.13;;
315;SDS011;14128;48.686;9.738;2022-10-16T06:58:33;3.47;;;1.83;;
315;SDS011;14128;48.686;9.738;2022-10-16T07:01:00;2.80;;;1.70;;
315;SDS011;14128;48.686;9.738;2022-10-16T07:03:27;3.83;;;1.77;;
315;SDS011;14128;48.686;9.738;2022-10-16T07:05:55;1.60;;;1.20;;
315;SDS011;14128;48.686;9.738;2022-10-16T07:08:22;1.83;;;1.40;;
315;SDS011;14128;48.686;9.738;2022-10-16T07:10:49;1.67;;;1.33;;
315;SDS011;14128;48.686;9.738;2022-10-16T07:13:24;2.43;;;1.50;;
315;SDS011;14128;48.686;9.738;2022-10-16T07:15:51;1.27;;;1.10;;
315;SDS011;14128;48.686;9.738;2022-10-16T07:18:18;2.23;;;1.33;;
315;SDS011;14128;48.686;9.738;2022-10-16T07:20:45;3.47;;;1.40;;
315;SDS011;14128;48.686;9.738;2022-10-16T07:23:13;5.40;;;1.63;;
315;SDS011;14128;48.686;9.738;2022-10-16T07:25:40;1.63;;;1.30;;
315;SDS011;14128;48.686;9.738;2022-10-16T07:28:07;6.67;;;1.50;;
315;SDS011;14128;48.686;9.738;2022-10-16T07:30:34;2.30;;;1.43;;
315;SDS011;14128;48.686;9.738;2022-10-16T07:33:03;2.50;;;1.37;;
315;SDS011;14128;48.686;9.738;2022-10-16T07:35:29;1.60;;;1.37;;
315;SDS011;14128;48.686;9.738;2022-10-16T07:37:56;1.60;;;1.50;;
315;SDS011;14128;48.686;9.738;2022-10-16T07:40:24;2.40;;;1.57;;
315;SDS011;14128;48.686;9.738;2022-10-16T07:42:52;3.07;;;2.60;;
315;SDS011;14128;48.686;9.738;2022-10-16T07:45:19;2.80;;;1.60;;
315;SDS011;14128;48.686;9.738;2022-10-16T07:47:46;3.27;;;1.37;;
315;SDS011;14128;48.686;9.738;2022-10-16T07:50:12;5.10;;;1.60;;
315;SDS011;14128;48.686;9.738;2022-10-16T07:52:39;3.00;;;1.30;;
315;SDS011;14128;48.686;9.738;2022-10-16T07:55:06;3.67;;;1.10;;
315;SDS011;14128;48.686;9.738;2022-10-16T07:57:35;4.20;;;1.10;;
315;SDS011;14128;48.686;9.738;2022-10-16T08:00:02;4.27;;;1.47;;
315;SDS011;14128;48.686;9.738;2022-10-16T08:02:30;4.83;;;1.40;;
315;SDS011;14128;48.686;9.738;2022-10-16T08:04:58;1.30;;;1.30;;
315;SDS011;14128;48.686;9.738;2022-10-16T08:07:24;3.00;;;1.23;;
315;SDS011;14128;48.686;9.738;2022-10-16T08:09:51;2.30;;;1.30;;
315;SDS011;14128;48.686;9.738;2022-10-16T08:12:18;4.63;;;1.70;;
315;SDS011;14128;48.686;9.738;2022-10-16T08:14:46;3.20;;;1.97;;
315;SDS011;14128;48.686;9.738;2022-10-16T08:17:13;4.83;;;1.90;;
315;SDS011;14128;48.686;9.738;2022-10-16T08:19:43;3.83;;;1.37;;
315;SDS011;14128;48.686;9.738;2022-10-16T08:22:11;1.73;;;1.57;;
315;SDS011;14128;48.686;9.738;2022-10-16T08:24:37;2.30;;;1.60;;
315;SDS011;14128;48.686;9.738;2022-10-16T08:27:04;2.50;;;1.57;;
315;SDS011;14128;48.686;9.738;2022-10-16T08:29:31;5.93;;;2.00;;
315;SDS011;14128;48.686;9.738;2022-10-16T08:32:00;4.03;;;1.27;;
315;SDS011;14128;48.686;9.738;2022-10-16T08:34:27;3.13;;;1.30;;
315;SDS011;14128;48.686;9.738;2022-10-16T08:36:53;1.97;;;1.30;;
315;SDS011;14128;48.686;9.738;2022-10-16T08:39:20;2.47;;;1.47;;
315;SDS011;14128;48.686;9.738;2022-10-16T08:42:04;4.00;;;1.20;;
315;SDS011;14128;48.686;9.738;2022-10-16T08:44:59;1.87;;;1.63;;
315;SDS011;14128;48.686;9.738;2022-10-16T08:47:41;1.97;;;1.50;;
315;SDS011;14128;48.686;9.738;2022-10-16T08:50:20;2.20;;;1.40;;
315;SDS011;14128;48.686;9.738;2022-10-16T08:52:50;2.20;;;1.00;;
315;SDS011;14128;48.686;9.738;2022-10-16T08:55:22;1.10;;;1.10;;
315;SDS011;14128;48.686;9.738;2022-10-16T08:57:57;3.40;;;1.30;;
315;SDS011;14128;48.686;9.738;2022-10-16T09:00:24;2.57;;;1.23;;
315;SDS011;14128;48.686;9.738;2022-10-16T09:02:55;3.23;;;1.60;;
315;SDS011;14128;48.686;9.738;2022-10-16T09:05:38;2.73;;;1.27;;
315;SDS011;14128;48.686;9.738;2022-10-16T09:08:19;3.60;;;1.57;;
315;SDS011;14128;48.686;9.738;2022-10-16T09:10:55;1.40;;;0.97;;
315;SDS011;14128;48.686;9.738;2022-10-16T09:13:26;3.43;;;1.20;;
315;SDS011;14128;48.686;9.738;2022-10-16T09:15:59;2.70;;;1.40;;
315;SDS011;14128;48.686;9.738;2022-10-16T09:18:37;1.20;;;0.90;;
315;SDS011;14128;48.686;9.738;2022-10-16T09:21:12;3.57;;;1.33;;
315;SDS011;14128;48.686;9.738;2022-10-16T09:23:42;1.27;;;1.10;;
315;SDS011;14128;48.686;9.738;2022-10-16T09:28:38;3.00;;;1.03;;
315;SDS011;14128;48.686;9.738;2022-10-16T09:31:07;3.20;;;1.50;;
315;SDS011;14128;48.686;9.738;2022-10-16T09:33:40;2.03;;;1.20;;
315;SDS011;14128;48.686;9.738;2022-10-16T09:36:08;1.50;;;1.13;;
315;SDS011;14128;48.686;9.738;2022-10-16T09:38:37;1.60;;;1.43;;
315;SDS011;14128;48.686;9.738;2022-10-16T09:41:13;1.30;;;1.20;;
315;SDS011;14128;48.686;9.738;2022-10-16T09:43:46;1.73;;;1.20;;
315;SDS011;14128;48.686;9.738;2022-10-16T09:46:22;5.10;;;1.57;;
315;SDS011;14128;48.686;9.738;2022-10-16T09:48:53;1.67;;;1.60;;
315;SDS011;14128;48.686;9.738;2022-10-16T09:51:23;2.27;;;1.10;;
315;SDS011;14128;48.686;9.738;2022-10-16T09:53:54;3.27;;;1.33;;
315;SDS011;14128;48.686;9.738;2022-10-16T09:56:23;3.07;;;1.20;;
315;SDS011;14128;48.686;9.738;2022-10-16T09:58:51;3.00;;;1.40;;
315;SDS011;14128;48.686;9.738;2022-10-16T10:01:19;1.07;;;1.00;;
315;SDS011;14128;48.686;9.738;2022-10-16T10:03:47;1.27;;;1.10;;
315;SDS011;14128;48.686;9.738;2022-10-16T10:06:23;1.43;;;1.43;;
315;SDS011;14128;48.686;9.738;2022-10-16T10:08:52;1.50;;;1.50;;
315;SDS011;14128;48.686;9.738;2022-10-16T10:11:40;1.37;;;1.03;;
315;SDS011;14128;48.686;9.738;2022-10-16T10:14:14;3.30;;;1.60;;
315;SDS011;14128;48.686;9.738;2022-10-16T10:16:50;2.60;;;1.03;;
315;SDS011;14128;48.686;9.738;2022-10-16T10:19:19;3.60;;;1.37;;
315;SDS011;14128;48.686;9.738;2022-10-16T10:21:48;3.70;;;1.30;;
315;SDS011;14128;48.686;9.738;2022-10-16T10:24:17;1.33;;;1.27;;
315;SDS011;14128;48.686;9.738;2022-10-16T10:26:50;7.03;;;1.80;;
315;SDS011;14128;48.686;9.738;2022-10-16T10:29:26;2.73;;;1.33;;
315;SDS011;14128;48.686;9.738;2022-10-16T10:32:03;2.83;;;1.47;;
315;SDS011;14128;48.686;9.738;2022-10-16T10:34:45;4.47;;;1.43;;
315;SDS011;14128;48.686;9.738;2022-10-16T10:37:29;6.70;;;1.57;;
315;SDS011;14128;48.686;9.738;2022-10-16T10:40:05;2.10;;;1.30;;
315;SDS011;14128;48.686;9.738;2022-10-16T10:42:43;1.20;;;1.00;;
315;SDS011;14128;48.686;9.738;2022-10-16T10:45:21;2.80;;;1.40;;
315;SDS011;14128;48.686;9.738;2022-10-16T10:47:57;3.47;;;1.37;;
315;SDS011;14128;48.686;9.738;2022-10-16T10:50:36;2.30;;;1.23;;
315;SDS011;14128;48.686;9.738;2022-10-16T10:53:11;1.53;;;1.20;;
315;SDS011;14128;48.686;9.738;2022-10-16T10:55:56;1.77;;;1.07;;
315;SDS011;14128;48.686;9.738;2022-10-16T11:01:39;1.80;;;1.30;;
315;SDS011;14128;48.686;9.738;2022-10-16T11:04:23;4.40;;;1.23;;
315;SDS011;14128;48.686;9.738;2022-10-16T11:07:14;1.67;;;1.27;;
315;SDS011;14128;48.686;9.738;2022-10-16T11:09:47;0.90;;;0.80;;
315;SDS011;14128;48.686;9.738;2022-10-16T11:12:19;2.93;;;1.60;;
315;SDS011;14128;48.686;9.738;2022-10-16T11:14:50;4.20;;;1.73;;
315;SDS011;14128;48.686;9.738;2022-10-16T11:17:25;1.27;;;0.93;;
315;SDS011;14128;48.686;9.738;2022-10-16T11:19:56;1.40;;;1.00;;
315;SDS011;14128;48.686;9.738;2022-10-16T11:22:29;1.37;;;0.90;;
315;SDS011;14128;48.686;9.738;2022-10-16T11:25:02;0.90;;;0.73;;
315;SDS011;14128;48.686;9.738;2022-10-16T11:27:38;1.87;;;1.00;;
315;SDS011;14128;48.686;9.738;2022-10-16T11:30:13;1.77;;;1.27;;
315;SDS011;14128;48.686;9.738;2022-10-16T11:32:46;0.80;;;0.80;;
315;SDS011;14128;48.686;9.738;2022-10-16T11:35:21;2.60;;;1.03;;
315;SDS011;14128;48.686;9.738;2022-10-16T11:37:51;2.70;;;0.60;;
315;SDS011;14128;48.686;9.738;2022-10-16T11:40:25;1.10;;;1.00;;
315;SDS011;14128;48.686;9.738;2022-10-16T11:42:56;1.70;;;0.87;;
315;SDS011;14128;48.686;9.738;2022-10-16T11:45:29;1.17;;;1.00;;
315;SDS011;14128;48.686;9.738;2022-10-16T11:48:04;4.17;;;1.23;;
315;SDS011;14128;48.686;9.738;2022-10-16T11:50:39;1.10;;;0.90;;
315;SDS011;14128;48.686;9.738;2022-10-16T11:53:13;2.53;;;0.80;;
315;SDS011;14128;48.686;9.738;2022-10-16T11:55:49;1.57;;;0.67;;
315;SDS011;14128;48.686;9.738;2022-10-16T11:58:20;1.73;;;0.73;;
315;SDS011;14128;48.686;9.738;2022-10-16T12:00:55;6.00;;;1.20;;
315;SDS011;14128;48.686;9.738;2022-10-16T12:03:26;1.43;;;0.70;;
315;SDS011;14128;48.686;9.738;2022-10-16T12:06:06;2.03;;;0.70;;
315;SDS011;14128;48.686;9.738;2022-10-16T12:08:43;1.60;;;0.80;;
315;SDS011;14128;48.686;9.738;2022-10-16T12:11:22;1.73;;;0.70;;
315;SDS011;14128;48.686;9.738;2022-10-16T12:14:03;3.03;;;0.83;;
315;SDS011;14128;48.686;9.738;2022-10-16T12:16:53;1.67;;;0.80;;
315;SDS011;14128;48.686;9.738;2022-10-16T12:19:22;1.70;;;0.70;;
315;SDS011;14128;48.686;9.738;2022-10-16T12:21:51;0.73;;;0.67;;
315;SDS011;14128;48.686;9.738;2022-10-16T12:24:21;2.63;;;0.87;;
315;SDS011;14128;48.686;9.738;2022-10-16T12:26:57;1.57;;;0.73;;
315;SDS011;14128;48.686;9.738;2022-10-16T12:29:28;2.33;;;0.60;;
315;SDS011;14128;48.686;9.738;2022-10-16T12:31:59;1.03;;;0.70;;
315;SDS011;14128;48.686;9.738;2022-10-16T12:34:27;1.20;;;0.70;;
315;SDS011;14128;48.686;9.738;2022-10-16T12:37:07;0.60;;;0.50;;
315;SDS011;14128;48.686;9.738;2022-10-16T12:39:40;3.40;;;0.90;;
315;SDS011;14128;48.686;9.738;2022-10-16T12:42:21;1.77;;;0.80;;
315;SDS011;14128;48.686;9.738;2022-10-16T12:44:50;2.33;;;0.80;;
315;SDS011;14128;48.686;9.738;2022-10-16T12:47:21;1.30;;;1.00;;
315;SDS011;14128;48.686;9.738;2022-10-16T12:49:50;2.20;;;1.57;;
315;SDS011;14128;48.686;9.738;2022-10-16T12:52:28;2.97;;;2.00;;
315;SDS011;14128;48.686;9.738;2022-10-16T12:55:01;2.57;;;1.57;;
315;SDS011;14128;48.686;9.738;2022-10-16T12:57:32;2.00;;;1.07;;
315;SDS011;14128;48.686;9.738;2022-10-16T13:00:10;1.10;;;0.70;;
315;SDS011;14128;48.686;9.738;2022-10-16T13:05:50;1.23;;;0.80;;
315;SDS011;14128;48.686;9.738;2022-10-16T13:11:20;1.70;;;0.93;;
315;SDS011;14128;48.686;9.738;2022-10-16T13:13:59;1.27;;;1.10;;
315;SDS011;14128;48.686;9.738;2022-10-16T13:16:43;1.00;;;0.90;;
315;SDS011;14128;48.686;9.738;2022-10-16T13:19:21;1.10;;;0.80;;
315;SDS011;14128;48.686;9.738;2022-10-16T13:21:56;1.80;;;0.83;;
315;SDS011;14128;48.686;9.738;2022-10-16T13:24:39;1.40;;;0.80;;
315;SDS011;14128;48.686;9.738;2022-10-16T13:27:16;1.70;;;1.00;;
315;SDS011;14128;48.686;9.738;2022-10-16T13:29:53;0.80;;;0.67;;
315;SDS011;14128;48.686;9.738;2022-10-16T13:32:27;0.93;;;0.60;;
315;SDS011;14128;48.686;9.738;2022-10-16T13:34:54;1.73;;;1.23;;
315;SDS011;14128;48.686;9.738;2022-10-16T13:37:22;2.03;;;0.90;;
315;SDS011;14128;48.686;9.738;2022-10-16T13:39:50;2.90;;;1.43;;
315;SDS011;14128;48.686;9.738;2022-10-16T13:42:20;1.20;;;0.80;;
315;SDS011;14128;48.686;9.738;2022-10-16T13:44:51;2.27;;;0.90;;
315;SDS011;14128;48.686;9.738;2022-10-16T13:47:21;2.63;;;1.27;;
315;SDS011;14128;48.686;9.738;2022-10-16T13:49:58;1.00;;;1.00;;
315;SDS011;14128;48.686;9.738;2022-10-16T13:52:26;1.10;;;0.77;;
315;SDS011;14128;48.686;9.738;2022-10-16T13:54:53;1.57;;;1.40;;
315;SDS011;14128;48.686;9.738;2022-10-16T13:57:21;1.33;;;0.90;;
315;SDS011;14128;48.686;9.738;2022-10-16T13:59:50;0.80;;;0.80;;
315;SDS011;14128;48.686;9.738;2022-10-16T14:02:19;1.73;;;0.90;;
315;SDS011;14128;48.686;9.738;2022-10-16T14:04:50;1.40;;;0.80;;
315;SDS011;14128;48.686;9.738;2022-10-16T14:07:20;2.20;;;1.00;;
315;SDS011;14128;48.686;9.738;2022-10-16T14:09:50;1.07;;;0.90;;
315;SDS011;14128;48.686;9.738;2022-10-16T14:12:18;1.83;;;1.50;;
315;SDS011;14128;48.686;9.738;2022-10-16T14:14:45;1.57;;;0.90;;
315;SDS011;14128;48.686;9.738;2022-10-16T14:17:14;1.40;;;1.20;;
315;SDS011;14128;48.686;9.738;2022-10-16T14:19:46;1.80;;;0.87;;
315;SDS011;14128;48.686;9.738;2022-10-16T14:22:34;0.97;;;0.80;;
315;SDS011;14128;48.686;9.738;2022-10-16T14:25:16;4.00;;;0.80;;
315;SDS011;14128;48.686;9.738;2022-10-16T14:27:56;3.03;;;1.00;;
315;SDS011;14128;48.686;9.738;2022-10-16T14:30:24;1.77;;;0.50;;
315;SDS011;14128;48.686;9.738;2022-10-16T14:32:55;1.30;;;1.00;;
315;SDS011;14128;48.686;9.738;2022-10-16T14:35:26;2.63;;;1.33;;
315;SDS011;14128;48.686;9.738;2022-10-16T14:37:55;2.47;;;1.27;;
315;SDS011;14128;48.686;9.738;2022-10-16T14:40:24;1.20;;;1.00;;
315;SDS011;14128;48.686;9.738;2022-10-16T14:42:53;4.13;;;0.90;;
315;SDS011;14128;48.686;9.738;2022-10-16T14:45:21;2.50;;;1.10;;
315;SDS011;14128;48.686;9.738;2022-10-16T14:47:50;1.10;;;0.90;;
315;SDS011;14128;48.686;9.738;2022-10-16T14:50:18;6.80;;;5.97;;
315;SDS011;14128;48.686;9.738;2022-10-16T14:52:47;1.10;;;0.80;;
315;SDS011;14128;48.686;9.738;2022-10-16T14:55:14;1.20;;;1.10;;
315;SDS011;14128;48.686;9.738;2022-10-16T14:57:42;5.27;;;1.00;;
315;SDS011;14128;48.686;9.738;2022-10-16T15:00:13;5.23;;;1.33;;
315;SDS011;14128;48.686;9.738;2022-10-16T15:02:43;4.60;;;1.30;;
315;SDS011;14128;48.686;9.738;2022-10-16T15:05:12;3.53;;;1.20;;
315;SDS011;14128;48.686;9.738;2022-10-16T15:07:41;7.03;;;4.47;;
315;SDS011;14128;48.686;9.738;2022-10-16T15:10:10;4.03;;;2.93;;
315;SDS011;14128;48.686;9.738;2022-10-16T15:12:37;4.20;;;1.97;;
315;SDS011;14128;48.686;9.738;2022-10-16T15:15:25;4.77;;;1.43;;
315;SDS011;14128;48.686;9.738;2022-10-16T15:18:00;4.57;;;1.30;;
315;SDS011;14128;48.686;9.738;2022-10-16T15:20:28;3.63;;;1.50;;
315;SDS011;14128;48.686;9.738;2022-10-16T15:22:56;3.27;;;1.50;;
315;SDS011;14128;48.686;9.738;2022-10-16T15:25:29;4.10;;;1.70;;
315;SDS011;14128;48.686;9.738;2022-10-16T15:27:58;3.63;;;1.70;;
315;SDS011;14128;48.686;9.738;2022-10-16T15:30:26;2.17;;;1.20;;
315;SDS011;14128;48.686;9.738;2022-10-16T15:32:53;1.67;;;1.57;;
315;SDS011;14128;48.686;9.738;2022-10-16T15:35:20;4.70;;;1.23;;
315;SDS011;14128;48.686;9.738;2022-10-16T15:37:47;2.60;;;1.60;;
315;SDS011;14128;48.686;9.738;2022-10-16T15:40:15;5.00;;;1.83;;
315;SDS011;14128;48.686;9.738;2022-10-16T15:42:44;2.97;;;1.70;;
315;SDS011;14128;48.686;9.738;2022-10-16T15:45:11;3.40;;;1.40;;
315;SDS011;14128;48.686;9.738;2022-10-16T15:47:40;2.57;;;1.53;;